createdAt,value
2019-03-30T00:01:45.430Z,9.73
2019-03-30T00:04:34.610Z,8.90
2019-03-30T00:07:24.777Z,8.30
2019-03-30T00:10:15.176Z,9.10
2019-03-30T00:13:05.798Z,8.13
2019-03-30T00:15:55.505Z,9.90
2019-03-30T00:18:45.285Z,8.50
2019-03-30T00:21:35.005Z,7.60
2019-03-30T00:24:24.726Z,8.13
2019-03-30T00:27:14.646Z,9.23
2019-03-30T00:30:04.757Z,7.30
2019-03-30T00:32:54.481Z,9.63
2019-03-30T00:35:44.076Z,10.33
2019-03-30T00:38:33.921Z,9.03
2019-03-30T00:41:23.126Z,9.40
2019-03-30T00:44:12.678Z,11.03
2019-03-30T00:47:01.852Z,9.03
2019-03-30T00:49:51.421Z,8.83
2019-03-30T00:52:41.595Z,10.27
2019-03-30T00:55:30.948Z,8.77
2019-03-30T00:58:20.510Z,9.07
2019-03-30T01:01:09.768Z,9.90
2019-03-30T01:03:59.255Z,12.30
2019-03-30T01:06:49.134Z,14.80
2019-03-30T01:09:38.563Z,9.00
2019-03-30T01:12:27.804Z,10.50
2019-03-30T01:15:17.863Z,9.93
2019-03-30T01:18:07.124Z,8.20
2019-03-30T01:20:56.347Z,12.53
2019-03-30T01:23:46.453Z,11.10
2019-03-30T01:26:35.850Z,8.77
2019-03-30T01:29:26.793Z,10.63
2019-03-30T01:32:16.427Z,12.63
2019-03-30T01:35:06.546Z,11.00
2019-03-30T01:37:55.974Z,9.93
2019-03-30T01:40:45.308Z,10.27
2019-03-30T01:43:35.105Z,11.60
2019-03-30T01:46:25.228Z,10.70
2019-03-30T01:49:14.118Z,12.70
2019-03-30T01:52:03.699Z,10.27
2019-03-30T01:54:53.645Z,12.70
2019-03-30T01:57:43.079Z,12.37
2019-03-30T02:00:32.768Z,11.53
2019-03-30T02:03:22.351Z,10.00
2019-03-30T02:06:11.933Z,11.97
2019-03-30T02:09:01.905Z,10.93
2019-03-30T02:11:51.240Z,11.40
2019-03-30T02:14:41.030Z,11.27
2019-03-30T02:17:30.799Z,12.87
2019-03-30T02:20:30.884Z,10.57
2019-03-30T02:23:20.894Z,12.93
2019-03-30T02:26:10.394Z,11.63
2019-03-30T02:29:00.158Z,10.50
2019-03-30T02:31:30.904Z,18.50
2019-03-30T02:34:20.291Z,12.03
2019-03-30T02:37:09.440Z,13.50
2019-03-30T02:39:59.491Z,13.10
2019-03-30T02:42:48.722Z,12.37
2019-03-30T02:45:38.557Z,14.20
2019-03-30T02:48:28.761Z,12.30
2019-03-30T02:51:17.845Z,14.47
2019-03-30T02:54:07.623Z,12.27
2019-03-30T02:56:57.277Z,13.23
2019-03-30T02:59:47.330Z,12.90
2019-03-30T03:02:37.026Z,12.00
2019-03-30T03:05:26.294Z,13.77
2019-03-30T03:08:16.258Z,16.27
2019-03-30T03:11:05.842Z,12.03
2019-03-30T03:13:54.818Z,13.37
2019-03-30T03:16:44.449Z,13.33
2019-03-30T03:19:34.499Z,13.37
2019-03-30T03:22:24.321Z,12.20
2019-03-30T03:25:13.860Z,14.30
2019-03-30T03:28:03.315Z,13.57
2019-03-30T03:30:52.579Z,15.30
2019-03-30T03:33:42.489Z,11.50
2019-03-30T03:36:31.572Z,13.97
2019-03-30T03:39:21.838Z,16.30
2019-03-30T03:42:12.109Z,13.70
2019-03-30T03:45:01.583Z,11.97
2019-03-30T03:47:51.661Z,12.00
2019-03-30T03:50:45.881Z,11.90
2019-03-30T03:53:36.357Z,13.37
2019-03-30T03:56:28.893Z,11.43
2019-03-30T03:59:20.366Z,12.40
2019-03-30T04:02:10.802Z,10.13
2019-03-30T04:04:55.081Z,14.00
2019-03-30T04:07:45.971Z,14.93
2019-03-30T04:10:38.145Z,15.30
2019-03-30T04:13:30.721Z,16.30
2019-03-30T04:16:20.635Z,12.20
2019-03-30T04:19:10.458Z,13.37
2019-03-30T04:21:59.624Z,15.80
2019-03-30T04:24:49.174Z,13.00
2019-03-30T04:27:39.088Z,12.03
2019-03-30T04:30:28.848Z,15.53
2019-03-30T04:33:18.768Z,14.50
2019-03-30T04:36:08.307Z,14.63
2019-03-30T04:38:57.704Z,14.07
2019-03-30T04:41:46.794Z,14.00
2019-03-30T04:44:37.630Z,15.97
2019-03-30T04:47:27.155Z,15.27
2019-03-30T04:50:17.007Z,15.57
2019-03-30T04:53:06.798Z,15.83
2019-03-30T04:55:56.440Z,15.60
2019-03-30T04:58:46.055Z,18.00
2019-03-30T05:01:35.829Z,15.87
2019-03-30T05:04:25.559Z,12.60
2019-03-30T05:07:15.078Z,14.50
2019-03-30T05:10:03.993Z,14.60
2019-03-30T05:12:53.753Z,16.67
2019-03-30T05:15:43.629Z,19.03
2019-03-30T05:18:33.549Z,14.43
2019-03-30T05:21:23.034Z,18.33
2019-03-30T05:24:12.937Z,14.17
2019-03-30T05:27:02.203Z,16.47
2019-03-30T05:29:51.870Z,17.07
2019-03-30T05:32:41.794Z,14.97
2019-03-30T05:35:31.694Z,15.93
2019-03-30T05:38:21.056Z,12.50
2019-03-30T05:41:10.630Z,13.07
2019-03-30T05:44:00.077Z,13.13
2019-03-30T05:46:49.856Z,14.87
2019-03-30T05:49:39.616Z,14.63
2019-03-30T05:52:29.531Z,14.33
2019-03-30T05:55:19.027Z,14.97
2019-03-30T05:58:08.165Z,13.73
2019-03-30T06:00:57.997Z,15.10
2019-03-30T06:03:47.644Z,13.50
2019-03-30T06:06:37.295Z,14.03
2019-03-30T06:09:27.123Z,12.67
2019-03-30T06:12:16.765Z,14.30
2019-03-30T06:15:07.235Z,13.80
2019-03-30T06:17:56.164Z,12.67
2019-03-30T06:20:46.194Z,13.50
2019-03-30T06:23:35.846Z,17.20
2019-03-30T06:26:25.827Z,16.37
2019-03-30T06:29:15.328Z,14.67
2019-03-30T06:32:05.354Z,13.57
2019-03-30T06:34:55.860Z,16.07
2019-03-30T06:37:46.033Z,14.67
2019-03-30T06:40:36.881Z,15.10
2019-03-30T06:43:26.673Z,16.77
2019-03-30T06:46:16.819Z,14.50
2019-03-30T06:49:06.286Z,14.83
2019-03-30T06:51:56.414Z,16.77
2019-03-30T06:54:46.470Z,17.03
2019-03-30T06:57:36.217Z,17.40
2019-03-30T07:00:35.721Z,17.13
2019-03-30T07:03:25.841Z,17.40
2019-03-30T07:06:17.310Z,18.20
2019-03-30T07:09:07.714Z,18.77
2019-03-30T07:12:00.106Z,17.23
2019-03-30T07:14:52.158Z,20.10
2019-03-30T07:17:48.512Z,18.97
2019-03-30T07:20:37.836Z,17.40
2019-03-30T07:23:27.492Z,17.27
2019-03-30T07:26:16.962Z,19.30
2019-03-30T07:29:07.267Z,17.57
2019-03-30T07:31:56.742Z,17.00
2019-03-30T07:34:46.686Z,17.83
2019-03-30T07:37:36.710Z,17.73
2019-03-30T07:40:25.859Z,20.40
2019-03-30T07:43:15.962Z,22.90
2019-03-30T07:46:06.081Z,17.30
2019-03-30T07:48:56.347Z,20.40
2019-03-30T07:51:46.000Z,20.50
2019-03-30T07:54:35.755Z,19.80
2019-03-30T07:57:25.718Z,18.20
2019-03-30T08:00:16.294Z,17.07
2019-03-30T08:03:07.451Z,17.60
2019-03-30T08:05:57.309Z,18.43
2019-03-30T08:08:47.223Z,20.57
2019-03-30T08:11:36.895Z,19.03
2019-03-30T08:14:27.092Z,19.43
2019-03-30T08:17:16.501Z,21.57
2019-03-30T08:20:06.810Z,21.73
2019-03-30T08:22:56.418Z,18.77
2019-03-30T08:25:45.755Z,19.40
2019-03-30T08:28:38.235Z,17.77
2019-03-30T08:31:09.119Z,18.60
2019-03-30T08:33:58.682Z,19.97
2019-03-30T08:36:48.460Z,21.40
2019-03-30T08:39:38.945Z,22.23
2019-03-30T08:42:29.101Z,23.13
2019-03-30T08:45:18.863Z,21.90
2019-03-30T08:48:09.126Z,22.73
2019-03-30T08:50:59.002Z,22.23
2019-03-30T08:53:54.702Z,19.07
2019-03-30T08:56:40.425Z,20.23
2019-03-30T08:59:29.977Z,19.60
2019-03-30T09:02:19.842Z,21.47
2019-03-30T09:05:03.112Z,19.63
2019-03-30T09:07:52.839Z,24.13
2019-03-30T09:10:42.275Z,21.63
2019-03-30T09:13:31.969Z,20.10
2019-03-30T09:16:21.787Z,20.70
2019-03-30T09:19:12.263Z,16.83
2019-03-30T09:22:02.025Z,22.40
2019-03-30T09:24:51.955Z,22.33
2019-03-30T09:27:41.610Z,20.30
2019-03-30T09:30:31.428Z,21.50
2019-03-30T09:33:21.195Z,18.00
2019-03-30T09:36:11.162Z,20.60
2019-03-30T09:39:00.990Z,23.20
2019-03-30T09:41:51.157Z,23.73
2019-03-30T09:44:40.699Z,24.80
2019-03-30T09:47:30.733Z,27.23
2019-03-30T09:50:20.434Z,29.90
2019-03-30T09:53:09.603Z,23.57
2019-03-30T09:55:58.666Z,22.03
2019-03-30T09:58:48.536Z,24.50
2019-03-30T10:01:38.215Z,21.70
2019-03-30T10:04:27.564Z,25.63
2019-03-30T10:07:17.242Z,20.40
2019-03-30T10:10:07.254Z,27.50
2019-03-30T10:12:57.373Z,19.63
2019-03-30T10:15:47.421Z,24.53
2019-03-30T10:18:36.953Z,19.97
2019-03-30T10:21:26.417Z,19.70
2019-03-30T10:24:16.606Z,22.83
2019-03-30T10:27:06.390Z,20.87
2019-03-30T10:29:55.840Z,20.47
2019-03-30T10:32:45.640Z,18.80
2019-03-30T10:35:35.941Z,19.93
2019-03-30T10:38:25.253Z,25.73
2019-03-30T10:41:15.249Z,19.57
2019-03-30T10:44:04.647Z,19.27
2019-03-30T10:46:53.731Z,18.67
2019-03-30T10:49:24.979Z,18.40
2019-03-30T10:51:55.875Z,18.63
2019-03-30T10:54:26.885Z,21.90
2019-03-30T10:56:58.235Z,20.23
2019-03-30T10:59:29.263Z,17.70
2019-03-30T11:02:03.257Z,19.10
2019-03-30T11:04:37.429Z,19.60
2019-03-30T11:07:06.681Z,25.03
2019-03-30T11:09:37.503Z,21.60
2019-03-30T11:12:08.611Z,18.17
2019-03-30T11:14:58.136Z,14.27
2019-03-30T11:17:48.197Z,13.77
2019-03-30T11:20:37.675Z,15.30
2019-03-30T11:23:28.475Z,15.63
2019-03-30T11:26:18.611Z,11.77
2019-03-30T11:29:00.124Z,13.73
2019-03-30T11:31:34.092Z,15.20
2019-03-30T11:34:24.841Z,15.77
2019-03-30T11:37:05.242Z,14.57
2019-03-30T11:39:54.928Z,17.97
2019-03-30T11:42:45.290Z,16.57
2019-03-30T11:45:35.379Z,14.60
2019-03-30T11:48:25.431Z,13.60
2019-03-30T11:51:15.023Z,15.40
2019-03-30T11:54:05.567Z,15.10
2019-03-30T11:56:54.935Z,12.57
2019-03-30T11:59:44.465Z,17.23
2019-03-30T12:02:34.362Z,15.10
2019-03-30T12:05:24.768Z,13.80
2019-03-30T12:07:55.556Z,14.03
2019-03-30T12:10:45.675Z,13.60
2019-03-30T12:13:35.470Z,12.87
2019-03-30T12:16:25.249Z,15.17
2019-03-30T12:19:14.947Z,13.00
2019-03-30T12:22:04.624Z,13.63
2019-03-30T12:24:55.241Z,14.00
2019-03-30T12:27:44.843Z,12.93
2019-03-30T12:30:35.037Z,20.83
2019-03-30T12:33:25.383Z,15.70
2019-03-30T12:36:15.147Z,16.90
2019-03-30T12:39:07.060Z,15.13
2019-03-30T12:41:57.218Z,17.30
2019-03-30T12:44:47.022Z,13.00
2019-03-30T12:47:36.174Z,12.57
2019-03-30T12:50:26.264Z,14.23
2019-03-30T12:53:16.443Z,18.60
2019-03-30T12:56:08.831Z,23.63
2019-03-30T12:58:57.440Z,14.00
2019-03-30T13:01:47.653Z,11.93
2019-03-30T13:04:36.935Z,12.17
2019-03-30T13:07:14.391Z,16.13
2019-03-30T13:10:04.868Z,12.40
2019-03-30T13:12:54.598Z,13.87
2019-03-30T13:15:44.496Z,12.57
2019-03-30T13:18:34.331Z,16.27
2019-03-30T13:21:23.961Z,13.00
2019-03-30T13:24:13.362Z,14.70
2019-03-30T13:27:02.739Z,14.07
2019-03-30T13:29:52.985Z,15.43
2019-03-30T13:32:48.505Z,15.40
2019-03-30T13:35:38.169Z,17.47
2019-03-30T13:38:27.543Z,17.50
2019-03-30T13:41:17.057Z,15.07
2019-03-30T13:44:06.252Z,15.80
2019-03-30T13:46:55.873Z,17.30
2019-03-30T13:49:45.271Z,17.70
2019-03-30T13:52:35.094Z,18.13
2019-03-30T13:55:24.538Z,15.87
2019-03-30T13:58:14.422Z,15.77
2019-03-30T14:01:04.176Z,16.13
2019-03-30T14:03:53.676Z,17.70
2019-03-30T14:06:43.356Z,15.53
2019-03-30T14:09:33.476Z,19.27
2019-03-30T14:12:23.482Z,19.00
2019-03-30T14:15:13.913Z,12.33
2019-03-30T14:18:03.402Z,14.50
2019-03-30T14:20:53.077Z,18.17
2019-03-30T14:23:43.572Z,16.83
2019-03-30T14:26:33.710Z,15.60
2019-03-30T14:29:22.955Z,20.43
2019-03-30T14:32:12.636Z,19.50
2019-03-30T14:35:02.606Z,15.87
2019-03-30T14:37:33.446Z,16.63
2019-03-30T14:40:19.175Z,18.67
2019-03-30T14:43:09.041Z,18.60
2019-03-30T14:45:58.357Z,18.13
2019-03-30T14:48:47.591Z,15.23
2019-03-30T14:51:36.686Z,19.37
2019-03-30T14:54:25.945Z,15.27
2019-03-30T14:57:16.113Z,17.93
2019-03-30T15:00:06.162Z,15.80
2019-03-30T15:02:56.057Z,17.43
2019-03-30T15:05:45.566Z,19.20
2019-03-30T15:08:34.795Z,15.27
2019-03-30T15:11:24.295Z,16.63
2019-03-30T15:14:14.140Z,15.07
2019-03-30T15:17:03.721Z,16.20
2019-03-30T15:19:53.343Z,14.63
2019-03-30T15:22:43.313Z,21.07
2019-03-30T15:25:32.956Z,15.97
2019-03-30T15:28:22.837Z,14.03
2019-03-30T15:31:12.799Z,14.83
2019-03-30T15:34:03.172Z,13.90
2019-03-30T15:36:52.497Z,13.60
2019-03-30T15:39:23.480Z,18.70
2019-03-30T15:42:13.521Z,14.13
2019-03-30T15:45:03.131Z,16.63
2019-03-30T15:47:52.373Z,13.40
2019-03-30T15:50:41.581Z,15.63
2019-03-30T15:53:31.496Z,13.23
2019-03-30T15:56:21.333Z,15.43
2019-03-30T15:58:52.125Z,13.17
2019-03-30T16:01:41.226Z,13.47
2019-03-30T16:04:31.009Z,17.00
2019-03-30T16:07:20.908Z,13.27
2019-03-30T16:10:10.706Z,15.17
2019-03-30T16:13:00.616Z,11.93
2019-03-30T16:15:50.465Z,16.50
2019-03-30T16:18:40.153Z,14.13
2019-03-30T16:21:29.719Z,13.03
2019-03-30T16:24:18.959Z,13.40
2019-03-30T16:27:08.432Z,14.63
2019-03-30T16:29:58.763Z,12.93
2019-03-30T16:32:49.026Z,13.47
2019-03-30T16:35:39.150Z,14.30
2019-03-30T16:38:28.714Z,18.47
2019-03-30T16:41:18.471Z,12.90
2019-03-30T16:44:07.879Z,14.47
2019-03-30T16:46:57.514Z,12.33
2019-03-30T16:49:47.117Z,12.03
2019-03-30T16:52:39.292Z,14.50
2019-03-30T16:55:28.591Z,14.27
2019-03-30T16:58:18.707Z,14.67
2019-03-30T17:01:08.358Z,18.10
2019-03-30T17:03:57.490Z,16.13
2019-03-30T17:06:47.225Z,15.33
2019-03-30T17:09:36.959Z,20.03
2019-03-30T17:12:26.690Z,21.33
2019-03-30T17:15:16.553Z,14.07
2019-03-30T17:18:06.151Z,16.60
2019-03-30T17:20:55.834Z,14.80
2019-03-30T17:23:45.594Z,17.37
2019-03-30T17:26:35.586Z,16.70
2019-03-30T17:29:25.293Z,20.93
2019-03-30T17:32:14.943Z,18.17
2019-03-30T17:35:05.374Z,15.20
2019-03-30T17:37:55.198Z,13.37
2019-03-30T17:40:44.994Z,15.73
2019-03-30T17:43:35.377Z,17.63
2019-03-30T17:46:25.228Z,15.67
2019-03-30T17:49:05.676Z,15.03
2019-03-30T17:51:56.162Z,15.90
2019-03-30T17:54:45.828Z,12.33
2019-03-30T17:57:35.043Z,15.13
2019-03-30T18:00:24.707Z,15.40
2019-03-30T18:03:14.664Z,18.20
2019-03-30T18:06:04.403Z,18.03
2019-03-30T18:08:54.446Z,16.50
2019-03-30T18:11:43.997Z,17.00
2019-03-30T18:14:33.985Z,17.80
2019-03-30T18:17:23.665Z,16.47
2019-03-30T18:20:13.866Z,16.83
2019-03-30T18:23:03.544Z,19.23
2019-03-30T18:25:53.685Z,18.00
2019-03-30T18:28:43.183Z,16.00
2019-03-30T18:31:32.054Z,16.53
2019-03-30T18:34:22.068Z,17.47
2019-03-30T18:37:12.423Z,17.50
2019-03-30T18:40:02.629Z,17.77
2019-03-30T18:42:51.670Z,18.93
2019-03-30T18:45:41.197Z,22.83
2019-03-30T18:48:21.208Z,17.50
2019-03-30T18:51:11.466Z,18.63
2019-03-30T18:54:01.381Z,21.77
2019-03-30T18:56:50.878Z,20.70
2019-03-30T18:59:40.082Z,20.90
2019-03-30T19:02:30.138Z,21.43
2019-03-30T19:05:20.213Z,19.77
2019-03-30T19:08:10.316Z,22.10
2019-03-30T19:10:59.755Z,18.63
2019-03-30T19:13:51.398Z,19.60
2019-03-30T19:16:40.478Z,18.77
2019-03-30T19:19:30.352Z,17.03
2019-03-30T19:22:20.329Z,25.43
2019-03-30T19:25:10.854Z,22.37
2019-03-30T19:28:00.892Z,22.53
2019-03-30T19:30:50.467Z,28.83
2019-03-30T19:33:39.954Z,24.27
2019-03-30T19:36:29.951Z,22.63
2019-03-30T19:39:19.749Z,23.30
2019-03-30T19:42:09.507Z,24.20
2019-03-30T19:44:58.969Z,22.43
2019-03-30T19:47:48.598Z,22.33
2019-03-30T19:50:38.833Z,19.33
2019-03-30T19:53:28.735Z,21.23
2019-03-30T19:56:18.687Z,24.63
2019-03-30T19:59:10.935Z,23.57
2019-03-30T20:01:59.593Z,23.30
2019-03-30T20:04:49.036Z,24.53
2019-03-30T20:07:38.969Z,26.60
2019-03-30T20:10:29.545Z,32.10
2019-03-30T20:13:19.522Z,28.63
2019-03-30T20:16:08.944Z,24.83
2019-03-30T20:19:11.484Z,27.47
2019-03-30T20:21:49.368Z,28.13
2019-03-30T20:24:39.396Z,28.40
2019-03-30T20:27:29.266Z,36.20
2019-03-30T20:30:18.544Z,29.30
2019-03-30T20:33:09.490Z,28.07
2019-03-30T20:35:58.931Z,29.63
2019-03-30T20:38:48.685Z,27.33
2019-03-30T20:41:38.135Z,29.03
2019-03-30T20:44:27.709Z,25.60
2019-03-30T20:47:17.029Z,25.90
2019-03-30T20:50:08.857Z,29.37
2019-03-30T20:52:59.083Z,27.40
2019-03-30T20:55:48.570Z,25.60
2019-03-30T20:58:38.645Z,24.60
2019-03-30T21:01:28.562Z,28.43
2019-03-30T21:04:18.573Z,33.57
2019-03-30T21:07:08.174Z,31.27
2019-03-30T21:09:57.929Z,31.70
2019-03-30T21:12:47.880Z,28.93
2019-03-30T21:15:37.180Z,31.97
2019-03-30T21:18:26.980Z,29.70
2019-03-30T21:21:16.972Z,27.27
2019-03-30T21:24:06.596Z,27.07
2019-03-30T21:26:56.997Z,25.80
2019-03-30T21:29:54.386Z,25.23
2019-03-30T21:32:38.052Z,26.30
2019-03-30T21:35:27.915Z,27.73
2019-03-30T21:37:59.368Z,26.60
2019-03-30T21:40:49.486Z,26.47
2019-03-30T21:43:39.673Z,29.37
2019-03-30T21:46:30.809Z,33.53
2019-03-30T21:49:20.636Z,30.83
2019-03-30T21:52:10.604Z,29.57
2019-03-30T21:55:00.416Z,31.17
2019-03-30T21:57:49.382Z,28.43
2019-03-30T22:00:40.257Z,33.23
2019-03-30T22:03:17.399Z,31.03
2019-03-30T22:06:06.946Z,30.20
2019-03-30T22:08:56.503Z,35.47
2019-03-30T22:11:46.643Z,38.13
2019-03-30T22:14:36.366Z,31.20
2019-03-30T22:17:26.495Z,33.43
2019-03-30T22:20:16.436Z,29.27
2019-03-30T22:23:06.277Z,31.37
2019-03-30T22:25:56.306Z,34.77
2019-03-30T22:28:46.128Z,34.03
2019-03-30T22:31:35.467Z,35.20
2019-03-30T22:34:25.763Z,36.53
2019-03-30T22:37:15.783Z,33.77
2019-03-30T22:40:06.422Z,37.03
2019-03-30T22:42:56.129Z,37.10
2019-03-30T22:45:45.615Z,42.20
2019-03-30T22:48:35.495Z,34.90
2019-03-30T22:51:24.871Z,36.80
2019-03-30T22:54:15.024Z,37.63
2019-03-30T22:57:04.424Z,41.93
2019-03-30T22:59:53.748Z,37.87
2019-03-30T23:02:43.651Z,42.40
2019-03-30T23:05:33.336Z,40.40
2019-03-30T23:08:22.813Z,44.40
2019-03-30T23:11:12.118Z,39.97
2019-03-30T23:14:02.120Z,45.53
2019-03-30T23:16:51.431Z,40.27
2019-03-30T23:19:41.304Z,40.97
2019-03-30T23:22:31.646Z,37.47
2019-03-30T23:25:21.358Z,36.37
2019-03-30T23:28:10.862Z,40.83
2019-03-30T23:31:00.997Z,41.70
2019-03-30T23:33:51.083Z,40.50
2019-03-30T23:36:40.989Z,47.13
2019-03-30T23:39:30.087Z,45.43
2019-03-30T23:42:19.711Z,44.10
2019-03-30T23:45:09.946Z,40.57
2019-03-30T23:47:59.698Z,41.00
2019-03-30T23:50:49.054Z,41.00
2019-03-30T23:53:38.680Z,47.50
2019-03-30T23:56:28.723Z,40.83
2019-03-30T23:59:18.481Z,40.80
